sensor_id;sensor_type;location;lat;lon;timestamp;pressure;altitude;pressure_sealevel;temperature;humidity
46724;BME280;32463;48.298;11.620;2023-04-29T00:02:03;96006.78;;;9.43;100.00
46724;BME280;32463;48.298;11.620;2023-04-29T00:04:29;96003.06;;;9.37;100.00
46724;BME280;32463;48.298;11.620;2023-04-29T00:06:56;96008.72;;;9.41;100.00
46724;BME280;32463;48.298;11.620;2023-04-29T00:09:22;96002.09;;;9.38;100.00
46724;BME280;32463;48.298;11.620;2023-04-29T00:11:48;95996.91;;;9.38;100.00
46724;BME280;32463;48.298;11.620;2023-04-29T00:14:15;95998.19;;;9.34;100.00
46724;BME280;32463;48.298;11.620;2023-04-29T00:16:42;95993.34;;;9.31;100.00
46724;BME280;32463;48.298;11.620;2023-04-29T00:19:08;96009.16;;;9.28;100.00
46724;BME280;32463;48.298;11.620;2023-04-29T00:21:35;96003.81;;;9.22;100.00
46724;BME280;32463;48.298;11.620;2023-04-29T00:24:02;95996.56;;;9.17;100.00
46724;BME280;32463;48.298;11.620;2023-04-29T00:26:29;95993.31;;;9.15;100.00
46724;BME280;32463;48.298;11.620;2023-04-29T00:28:56;95999.44;;;9.14;100.00
46724;BME280;32463;48.298;11.620;2023-04-29T00:31:22;96007.88;;;9.16;100.00
46724;BME280;32463;48.298;11.620;2023-04-29T00:33:48;96007.53;;;9.11;100.00
46724;BME280;32463;48.298;11.620;2023-04-29T00:36:15;96000.41;;;9.13;100.00
46724;BME280;32463;48.298;11.620;2023-04-29T00:38:41;95996.06;;;9.14;100.00
46724;BME280;32463;48.298;11.620;2023-04-29T00:41:08;96002.03;;;9.14;100.00
46724;BME280;32463;48.298;11.620;2023-04-29T00:43:35;96002.34;;;9.11;100.00
46724;BME280;32463;48.298;11.620;2023-04-29T00:46:01;96011.72;;;9.12;100.00
46724;BME280;32463;48.298;11.620;2023-04-29T00:48:29;96001.19;;;9.05;100.00
46724;BME280;32463;48.298;11.620;2023-04-29T00:50:55;95996.19;;;9.04;100.00
46724;BME280;32463;48.298;11.620;2023-04-29T00:53:22;95991.97;;;9.03;100.00
46724;BME280;32463;48.298;11.620;2023-04-29T00:55:49;95990.00;;;8.97;100.00
46724;BME280;32463;48.298;11.620;2023-04-29T00:58:17;95987.91;;;8.92;100.00
46724;BME280;32463;48.298;11.620;2023-04-29T01:00:43;95989.66;;;8.92;100.00
46724;BME280;32463;48.298;11.620;2023-04-29T01:03:11;95996.94;;;8.88;100.00
46724;BME280;32463;48.298;11.620;2023-04-29T01:05:38;95987.03;;;8.75;100.00
46724;BME280;32463;48.298;11.620;2023-04-29T01:08:18;95986.66;;;8.62;100.00
46724;BME280;32463;48.298;11.620;2023-04-29T01:11:03;95987.59;;;8.53;100.00
46724;BME280;32463;48.298;11.620;2023-04-29T01:13:42;95983.66;;;8.41;100.00
46724;BME280;32463;48.298;11.620;2023-04-29T01:19:14;95993.53;;;8.28;100.00
46724;BME280;32463;48.298;11.620;2023-04-29T01:21:46;95983.53;;;8.25;100.00
46724;BME280;32463;48.298;11.620;2023-04-29T01:24:14;95991.91;;;8.19;100.00
46724;BME280;32463;48.298;11.620;2023-04-29T01:26:47;95989.91;;;8.13;100.00
46724;BME280;32463;48.298;11.620;2023-04-29T01:29:27;95987.69;;;8.18;100.00
46724;BME280;32463;48.298;11.620;2023-04-29T01:32:08;95987.03;;;8.16;100.00
46724;BME280;32463;48.298;11.620;2023-04-29T01:34:45;95993.16;;;8.15;100.00
46724;BME280;32463;48.298;11.620;2023-04-29T01:37:24;95996.69;;;8.14;100.00
46724;BME280;32463;48.298;11.620;2023-04-29T01:39:59;95998.41;;;8.31;100.00
46724;BME280;32463;48.298;11.620;2023-04-29T01:42:43;95997.41;;;8.24;100.00
46724;BME280;32463;48.298;11.620;2023-04-29T01:45:14;96000.53;;;8.09;100.00
46724;BME280;32463;48.298;11.620;2023-04-29T01:47:41;95995.97;;;8.03;100.00
46724;BME280;32463;48.298;11.620;2023-04-29T01:50:08;95992.13;;;8.07;100.00
46724;BME280;32463;48.298;11.620;2023-04-29T01:52:35;95986.31;;;8.05;100.00
46724;BME280;32463;48.298;11.620;2023-04-29T01:55:02;95989.63;;;8.16;100.00
46724;BME280;32463;48.298;11.620;2023-04-29T01:57:29;95991.03;;;8.36;100.00
46724;BME280;32463;48.298;11.620;2023-04-29T01:59:56;95988.72;;;8.59;100.00
46724;BME280;32463;48.298;11.620;2023-04-29T02:02:23;95986.31;;;8.57;100.00
46724;BME280;32463;48.298;11.620;2023-04-29T02:04:49;95996.84;;;8.64;100.00
46724;BME280;32463;48.298;11.620;2023-04-29T02:07:16;95986.34;;;8.65;100.00
46724;BME280;32463;48.298;11.620;2023-04-29T02:09:43;95992.13;;;8.59;100.00
46724;BME280;32463;48.298;11.620;2023-04-29T02:12:09;95985.66;;;8.55;100.00
46724;BME280;32463;48.298;11.620;2023-04-29T02:14:35;95991.81;;;8.54;100.00
46724;BME280;32463;48.298;11.620;2023-04-29T02:17:02;95984.66;;;8.48;100.00
46724;BME280;32463;48.298;11.620;2023-04-29T02:19:28;95990.78;;;8.47;100.00
46724;BME280;32463;48.298;11.620;2023-04-29T02:21:55;95992.38;;;8.40;100.00
46724;BME280;32463;48.298;11.620;2023-04-29T02:24:21;95985.50;;;8.31;100.00
46724;BME280;32463;48.298;11.620;2023-04-29T02:26:48;95986.84;;;8.35;100.00
46724;BME280;32463;48.298;11.620;2023-04-29T02:29:14;95992.97;;;8.34;100.00
46724;BME280;32463;48.298;11.620;2023-04-29T02:31:41;95995.00;;;8.48;100.00
46724;BME280;32463;48.298;11.620;2023-04-29T02:34:07;95984.97;;;8.45;100.00
46724;BME280;32463;48.298;11.620;2023-04-29T02:36:34;95989.81;;;8.48;100.00
46724;BME280;32463;48.298;11.620;2023-04-29T02:39:00;95997.44;;;8.50;100.00
46724;BME280;32463;48.298;11.620;2023-04-29T02:41:27;95992.56;;;8.47;100.00
46724;BME280;32463;48.298;11.620;2023-04-29T02:43:53;95990.75;;;8.39;100.00
46724;BME280;32463;48.298;11.620;2023-04-29T02:46:20;95994.59;;;8.35;100.00
46724;BME280;32463;48.298;11.620;2023-04-29T02:48:46;95996.22;;;8.36;100.00
46724;BME280;32463;48.298;11.620;2023-04-29T02:51:12;95995.47;;;8.26;100.00
46724;BME280;32463;48.298;11.620;2023-04-29T02:53:39;95999.94;;;8.16;100.00
46724;BME280;32463;48.298;11.620;2023-04-29T02:56:05;95996.69;;;8.14;100.00
46724;BME280;32463;48.298;11.620;2023-04-29T02:58:32;95993.41;;;8.03;100.00
46724;BME280;32463;48.298;11.620;2023-04-29T03:00:58;95997.91;;;8.01;100.00
46724;BME280;32463;48.298;11.620;2023-04-29T03:03:25;95998.50;;;7.95;100.00
46724;BME280;32463;48.298;11.620;2023-04-29T03:05:51;96001.84;;;7.88;100.00
46724;BME280;32463;48.298;11.620;2023-04-29T03:08:18;96000.22;;;7.87;100.00
46724;BME280;32463;48.298;11.620;2023-04-29T03:10:45;95998.19;;;7.98;100.00
46724;BME280;32463;48.298;11.620;2023-04-29T03:13:12;96002.97;;;8.11;100.00
46724;BME280;32463;48.298;11.620;2023-04-29T03:15:38;95997.97;;;8.35;100.00
46724;BME280;32463;48.298;11.620;2023-04-29T03:18:05;95993.88;;;8.51;100.00
46724;BME280;32463;48.298;11.620;2023-04-29T03:20:31;95997.59;;;8.56;100.00
46724;BME280;32463;48.298;11.620;2023-04-29T03:22:58;95996.38;;;8.68;100.00
46724;BME280;32463;48.298;11.620;2023-04-29T03:25:25;95998.31;;;8.66;100.00
46724;BME280;32463;48.298;11.620;2023-04-29T03:27:52;95996.69;;;8.65;100.00
46724;BME280;32463;48.298;11.620;2023-04-29T03:30:19;95990.03;;;8.63;100.00
46724;BME280;32463;48.298;11.620;2023-04-29T03:32:45;95998.00;;;8.69;100.00
46724;BME280;32463;48.298;11.620;2023-04-29T03:35:12;95998.59;;;8.63;100.00
46724;BME280;32463;48.298;11.620;2023-04-29T03:37:38;95991.66;;;8.64;100.00
46724;BME280;32463;48.298;11.620;2023-04-29T03:40:08;96000.88;;;8.66;100.00
46724;BME280;32463;48.298;11.620;2023-04-29T03:42:35;95989.28;;;8.70;100.00
46724;BME280;32463;48.298;11.620;2023-04-29T03:45:01;95993.47;;;8.71;100.00
46724;BME280;32463;48.298;11.620;2023-04-29T03:47:28;95991.41;;;8.75;100.00
46724;BME280;32463;48.298;11.620;2023-04-29T03:49:55;95987.03;;;8.75;100.00
46724;BME280;32463;48.298;11.620;2023-04-29T03:52:21;95988.84;;;8.83;100.00
46724;BME280;32463;48.298;11.620;2023-04-29T03:54:47;95990.31;;;8.86;100.00
46724;BME280;32463;48.298;11.620;2023-04-29T03:57:14;95995.66;;;8.84;100.00
46724;BME280;32463;48.298;11.620;2023-04-29T03:59:40;95996.63;;;8.91;100.00
46724;BME280;32463;48.298;11.620;2023-04-29T04:02:07;95990.31;;;8.94;100.00
46724;BME280;32463;48.298;11.620;2023-04-29T04:04:34;95994.38;;;8.96;100.00
46724;BME280;32463;48.298;11.620;2023-04-29T04:07:01;95998.44;;;8.99;100.00
46724;BME280;32463;48.298;11.620;2023-04-29T04:09:28;96003.59;;;8.99;100.00
46724;BME280;32463;48.298;11.620;2023-04-29T04:11:54;95996.81;;;8.98;100.00
46724;BME280;32463;48.298;11.620;2023-04-29T04:14:20;96009.06;;;8.96;100.00
46724;BME280;32463;48.298;11.620;2023-04-29T04:16:47;96011.00;;;8.94;100.00
46724;BME280;32463;48.298;11.620;2023-04-29T04:19:15;96012.59;;;8.87;100.00
46724;BME280;32463;48.298;11.620;2023-04-29T04:21:41;96008.72;;;8.83;100.00
46724;BME280;32463;48.298;11.620;2023-04-29T04:24:07;96011.00;;;8.94;100.00
46724;BME280;32463;48.298;11.620;2023-04-29T04:26:34;96009.03;;;8.80;100.00
46724;BME280;32463;48.298;11.620;2023-04-29T04:29:00;96025.50;;;8.87;100.00
46724;BME280;32463;48.298;11.620;2023-04-29T04:31:27;96024.91;;;8.93;100.00
46724;BME280;32463;48.298;11.620;2023-04-29T04:33:54;96023.28;;;8.92;100.00
46724;BME280;32463;48.298;11.620;2023-04-29T04:36:21;96026.16;;;8.89;100.00
46724;BME280;32463;48.298;11.620;2023-04-29T04:38:47;96029.72;;;8.88;100.00
46724;BME280;32463;48.298;11.620;2023-04-29T04:41:14;96039.09;;;8.89;100.00
46724;BME280;32463;48.298;11.620;2023-04-29T04:43:40;96029.25;;;8.84;100.00
46724;BME280;32463;48.298;11.620;2023-04-29T04:46:13;96030.06;;;8.85;100.00
46724;BME280;32463;48.298;11.620;2023-04-29T04:48:40;96019.22;;;8.89;100.00
46724;BME280;32463;48.298;11.620;2023-04-29T04:51:11;96032.34;;;8.96;100.00
46724;BME280;32463;48.298;11.620;2023-04-29T04:53:38;96031.72;;;9.02;100.00
46724;BME280;32463;48.298;11.620;2023-04-29T04:56:05;96028.19;;;9.03;100.00
46724;BME280;32463;48.298;11.620;2023-04-29T04:58:32;96028.38;;;9.09;100.00
46724;BME280;32463;48.298;11.620;2023-04-29T05:00:59;96030.47;;;9.14;100.00
46724;BME280;32463;48.298;11.620;2023-04-29T05:03:26;96032.75;;;9.17;100.00
46724;BME280;32463;48.298;11.620;2023-04-29T05:05:54;96035.34;;;9.25;100.00
46724;BME280;32463;48.298;11.620;2023-04-29T05:08:20;96030.84;;;9.35;100.00
46724;BME280;32463;48.298;11.620;2023-04-29T05:10:47;96029.59;;;9.48;100.00
46724;BME280;32463;48.298;11.620;2023-04-29T05:13:14;96040.91;;;9.55;100.00
46724;BME280;32463;48.298;11.620;2023-04-29T05:15:40;96042.22;;;9.59;100.00
46724;BME280;32463;48.298;11.620;2023-04-29T05:18:07;96050.00;;;9.67;100.00
46724;BME280;32463;48.298;11.620;2023-04-29T05:20:33;96039.34;;;9.78;100.00
46724;BME280;32463;48.298;11.620;2023-04-29T05:23:00;96052.94;;;9.88;100.00
46724;BME280;32463;48.298;11.620;2023-04-29T05:25:26;96058.13;;;9.96;100.00
46724;BME280;32463;48.298;11.620;2023-04-29T05:27:53;96056.50;;;10.03;100.00
46724;BME280;32463;48.298;11.620;2023-04-29T05:30:20;96063.59;;;10.09;100.00
46724;BME280;32463;48.298;11.620;2023-04-29T05:32:47;96061.38;;;10.23;100.00
46724;BME280;32463;48.298;11.620;2023-04-29T05:35:14;96068.19;;;10.24;100.00
46724;BME280;32463;48.298;11.620;2023-04-29T05:37:40;96061.22;;;10.32;100.00
46724;BME280;32463;48.298;11.620;2023-04-29T05:40:07;96071.06;;;10.45;100.00
46724;BME280;32463;48.298;11.620;2023-04-29T05:42:34;96060.06;;;10.51;100.00
46724;BME280;32463;48.298;11.620;2023-04-29T05:45:01;96067.00;;;10.59;100.00
46724;BME280;32463;48.298;11.620;2023-04-29T05:47:27;96080.56;;;10.77;100.00
46724;BME280;32463;48.298;11.620;2023-04-29T05:49:54;96075.34;;;10.93;100.00
46724;BME280;32463;48.298;11.620;2023-04-29T05:52:21;96077.44;;;10.98;100.00
46724;BME280;32463;48.298;11.620;2023-04-29T05:54:47;96082.09;;;11.10;100.00
46724;BME280;32463;48.298;11.620;2023-04-29T05:57:14;96083.50;;;11.29;100.00
46724;BME280;32463;48.298;11.620;2023-04-29T05:59:40;96092.66;;;11.40;100.00
46724;BME280;32463;48.298;11.620;2023-04-29T06:02:07;96082.16;;;11.33;100.00
46724;BME280;32463;48.298;11.620;2023-04-29T06:04:35;96091.84;;;11.39;100.00
46724;BME280;32463;48.298;11.620;2023-04-29T06:07:01;96096.41;;;11.37;100.00
46724;BME280;32463;48.298;11.620;2023-04-29T06:09:29;96089.84;;;11.58;100.00
46724;BME280;32463;48.298;11.620;2023-04-29T06:11:57;96095.78;;;11.66;100.00
46724;BME280;32463;48.298;11.620;2023-04-29T06:14:24;96103.31;;;11.92;100.00
46724;BME280;32463;48.298;11.620;2023-04-29T06:16:50;96104.91;;;11.93;100.00
46724;BME280;32463;48.298;11.620;2023-04-29T06:19:17;96105.59;;;11.87;100.00
46724;BME280;32463;48.298;11.620;2023-04-29T06:21:44;96112.13;;;11.83;100.00
46724;BME280;32463;48.298;11.620;2023-04-29T06:24:11;96108.53;;;11.84;100.00
46724;BME280;32463;48.298;11.620;2023-04-29T06:26:37;96110.34;;;12.06;100.00
46724;BME280;32463;48.298;11.620;2023-04-29T06:29:04;96117.78;;;12.09;100.00
46724;BME280;32463;48.298;11.620;2023-04-29T06:31:31;96120.38;;;12.09;100.00
46724;BME280;32463;48.298;11.620;2023-04-29T06:33:58;96119.34;;;12.19;100.00
46724;BME280;32463;48.298;11.620;2023-04-29T06:36:24;96121.53;;;12.07;100.00
46724;BME280;32463;48.298;11.620;2023-04-29T06:38:51;96118.78;;;12.08;100.00
46724;BME280;32463;48.298;11.620;2023-04-29T06:41:18;96126.63;;;12.00;100.00
46724;BME280;32463;48.298;11.620;2023-04-29T06:43:44;96121.88;;;12.04;100.00
46724;BME280;32463;48.298;11.620;2023-04-29T06:46:11;96121.63;;;12.22;100.00
46724;BME280;32463;48.298;11.620;2023-04-29T06:48:38;96127.22;;;12.10;100.00
46724;BME280;32463;48.298;11.620;2023-04-29T06:51:04;96130.09;;;12.38;100.00
46724;BME280;32463;48.298;11.620;2023-04-29T06:53:31;96121.31;;;12.17;100.00
46724;BME280;32463;48.298;11.620;2023-04-29T06:55:58;96122.00;;;12.33;100.00
46724;BME280;32463;48.298;11.620;2023-04-29T06:58:25;96111.25;;;12.36;100.00
46724;BME280;32463;48.298;11.620;2023-04-29T07:00:52;96114.13;;;12.41;100.00
46724;BME280;32463;48.298;11.620;2023-04-29T07:03:19;96119.34;;;12.56;100.00
46724;BME280;32463;48.298;11.620;2023-04-29T07:05:45;96120.03;;;12.73;100.00
46724;BME280;32463;48.298;11.620;2023-04-29T07:08:12;96114.84;;;12.88;100.00
46724;BME280;32463;48.298;11.620;2023-04-29T07:10:40;96117.00;;;12.99;100.00
46724;BME280;32463;48.298;11.620;2023-04-29T07:13:06;96112.91;;;13.34;100.00
46724;BME280;32463;48.298;11.620;2023-04-29T07:15:34;96119.91;;;13.19;100.00
46724;BME280;32463;48.298;11.620;2023-04-29T07:18:02;96118.44;;;13.45;100.00
46724;BME280;32463;48.298;11.620;2023-04-29T07:20:29;96122.31;;;13.49;100.00
46724;BME280;32463;48.298;11.620;2023-04-29T07:22:56;96119.25;;;13.46;100.00
46724;BME280;32463;48.298;11.620;2023-04-29T07:25:22;96110.84;;;13.80;100.00
46724;BME280;32463;48.298;11.620;2023-04-29T07:27:49;96114.75;;;13.69;100.00
46724;BME280;32463;48.298;11.620;2023-04-29T07:30:15;96115.25;;;13.43;100.00
46724;BME280;32463;48.298;11.620;2023-04-29T07:32:42;96117.31;;;13.84;100.00
46724;BME280;32463;48.298;11.620;2023-04-29T07:35:08;96111.88;;;14.00;100.00
46724;BME280;32463;48.298;11.620;2023-04-29T07:37:35;96120.81;;;14.34;100.00
46724;BME280;32463;48.298;11.620;2023-04-29T07:40:01;96121.44;;;14.36;100.00
46724;BME280;32463;48.298;11.620;2023-04-29T07:42:28;96122.44;;;14.56;100.00
46724;BME280;32463;48.298;11.620;2023-04-29T07:44:54;96123.31;;;14.63;100.00
46724;BME280;32463;48.298;11.620;2023-04-29T07:47:21;96118.94;;;14.70;100.00
46724;BME280;32463;48.298;11.620;2023-04-29T07:49:48;96115.63;;;14.34;100.00
46724;BME280;32463;48.298;11.620;2023-04-29T07:52:14;96122.00;;;14.31;100.00
46724;BME280;32463;48.298;11.620;2023-04-29T07:54:41;96124.94;;;14.64;100.00
46724;BME280;32463;48.298;11.620;2023-04-29T07:57:07;96117.00;;;14.79;100.00
46724;BME280;32463;48.298;11.620;2023-04-29T07:59:36;96121.53;;;14.98;100.00
46724;BME280;32463;48.298;11.620;2023-04-29T08:02:03;96114.88;;;14.89;100.00
46724;BME280;32463;48.298;11.620;2023-04-29T08:04:33;96125.19;;;15.04;100.00
46724;BME280;32463;48.298;11.620;2023-04-29T08:07:03;96124.56;;;14.67;100.00
46724;BME280;32463;48.298;11.620;2023-04-29T08:09:32;96123.88;;;14.87;100.00
46724;BME280;32463;48.298;11.620;2023-04-29T08:11:59;96125.56;;;15.01;100.00
46724;BME280;32463;48.298;11.620;2023-04-29T08:14:26;96119.22;;;15.10;100.00
46724;BME280;32463;48.298;11.620;2023-04-29T08:16:53;96115.53;;;14.98;100.00
46724;BME280;32463;48.298;11.620;2023-04-29T08:19:20;96118.81;;;15.13;100.00
46724;BME280;32463;48.298;11.620;2023-04-29T08:21:47;96118.81;;;15.13;100.00
46724;BME280;32463;48.298;11.620;2023-04-29T08:24:13;96113.06;;;14.90;100.00
46724;BME280;32463;48.298;11.620;2023-04-29T08:26:40;96127.38;;;14.72;100.00
46724;BME280;32463;48.298;11.620;2023-04-29T08:29:07;96118.41;;;14.54;100.00
46724;BME280;32463;48.298;11.620;2023-04-29T08:31:34;96116.19;;;14.78;100.00
46724;BME280;32463;48.298;11.620;2023-04-29T08:34:01;96120.53;;;15.27;100.00
46724;BME280;32463;48.298;11.620;2023-04-29T08:36:27;96112.25;;;16.32;100.00
46724;BME280;32463;48.298;11.620;2023-04-29T08:38:54;96105.19;;;16.33;100.00
46724;BME280;32463;48.298;11.620;2023-04-29T08:41:21;96108.84;;;16.84;100.00
46724;BME280;32463;48.298;11.620;2023-04-29T08:43:47;96105.63;;;16.82;100.00
46724;BME280;32463;48.298;11.620;2023-04-29T08:46:14;96105.88;;;17.52;100.00
46724;BME280;32463;48.298;11.620;2023-04-29T08:48:41;96105.38;;;17.81;100.00
46724;BME280;32463;48.298;11.620;2023-04-29T08:51:10;96120.88;;;18.84;100.00
46724;BME280;32463;48.298;11.620;2023-04-29T08:53:37;96116.03;;;18.56;100.00
46724;BME280;32463;48.298;11.620;2023-04-29T08:56:08;96114.53;;;18.04;100.00
46724;BME280;32463;48.298;11.620;2023-04-29T08:58:39;96115.22;;;17.41;100.00
46724;BME280;32463;48.298;11.620;2023-04-29T09:01:08;96118.94;;;16.74;100.00
46724;BME280;32463;48.298;11.620;2023-04-29T09:03:43;96121.88;;;17.37;100.00
46724;BME280;32463;48.298;11.620;2023-04-29T09:06:12;96111.09;;;17.72;100.00
46724;BME280;32463;48.298;11.620;2023-04-29T09:08:40;96129.66;;;17.50;100.00
46724;BME280;32463;48.298;11.620;2023-04-29T09:11:08;96122.81;;;17.49;100.00
46724;BME280;32463;48.298;11.620;2023-04-29T09:13:36;96126.56;;;16.96;100.00
46724;BME280;32463;48.298;11.620;2023-04-29T09:16:03;96121.53;;;16.48;100.00
46724;BME280;32463;48.298;11.620;2023-04-29T09:18:44;96116.13;;;16.69;100.00
46724;BME280;32463;48.298;11.620;2023-04-29T09:21:12;96110.84;;;17.09;100.00
46724;BME280;32463;48.298;11.620;2023-04-29T09:23:39;96116.69;;;17.82;100.00
46724;BME280;32463;48.298;11.620;2023-04-29T09:26:05;96112.38;;;17.94;100.00
46724;BME280;32463;48.298;11.620;2023-04-29T09:28:32;96100.78;;;18.08;100.00
46724;BME280;32463;48.298;11.620;2023-04-29T09:31:01;96107.38;;;18.80;100.00
46724;BME280;32463;48.298;11.620;2023-04-29T09:33:30;96102.19;;;19.35;100.00
46724;BME280;32463;48.298;11.620;2023-04-29T09:35:57;96095.34;;;19.53;100.00
46724;BME280;32463;48.298;11.620;2023-04-29T09:38:25;96095.31;;;19.34;100.00
46724;BME280;32463;48.298;11.620;2023-04-29T09:40:51;96104.34;;;19.02;100.00
46724;BME280;32463;48.298;11.620;2023-04-29T09:43:20;96110.66;;;17.75;100.00
46724;BME280;32463;48.298;11.620;2023-04-29T09:45:48;96119.31;;;17.11;100.00
46724;BME280;32463;48.298;11.620;2023-04-29T09:48:15;96116.69;;;16.58;100.00
46724;BME280;32463;48.298;11.620;2023-04-29T09:50:42;96107.00;;;16.19;100.00
46724;BME280;32463;48.298;11.620;2023-04-29T09:53:27;96125.09;;;16.14;100.00
46724;BME280;32463;48.298;11.620;2023-04-29T09:58:33;96123.13;;;16.36;100.00
46724;BME280;32463;48.298;11.620;2023-04-29T10:01:02;96124.53;;;16.58;100.00
46724;BME280;32463;48.298;11.620;2023-04-29T10:03:34;96119.34;;;16.71;100.00
46724;BME280;32463;48.298;11.620;2023-04-29T10:06:03;96121.56;;;17.72;100.00
46724;BME280;32463;48.298;11.620;2023-04-29T10:08:30;96110.34;;;18.59;100.00
46724;BME280;32463;48.298;11.620;2023-04-29T10:11:01;96111.72;;;18.68;100.00
46724;BME280;32463;48.298;11.620;2023-04-29T10:13:29;96115.00;;;18.89;95.98
46724;BME280;32463;48.298;11.620;2023-04-29T10:18:40;96102.94;;;20.39;80.53
46724;BME280;32463;48.298;11.620;2023-04-29T10:21:10;96114.63;;;19.83;85.25
46724;BME280;32463;48.298;11.620;2023-04-29T10:23:38;96112.66;;;20.08;77.98
46724;BME280;32463;48.298;11.620;2023-04-29T10:26:05;96099.88;;;19.94;79.87
46724;BME280;32463;48.298;11.620;2023-04-29T10:28:32;96101.63;;;19.70;83.99
46724;BME280;32463;48.298;11.620;2023-04-29T10:31:00;96101.63;;;18.65;91.21
46724;BME280;32463;48.298;11.620;2023-04-29T10:33:31;96112.19;;;19.45;82.45
46724;BME280;32463;48.298;11.620;2023-04-29T10:35:59;96103.34;;;19.21;82.73
46724;BME280;32463;48.298;11.620;2023-04-29T10:38:36;96105.19;;;19.21;83.55
46724;BME280;32463;48.298;11.620;2023-04-29T10:41:26;96108.50;;;18.66;83.82
46724;BME280;32463;48.298;11.620;2023-04-29T10:43:53;96097.34;;;19.32;77.39
46724;BME280;32463;48.298;11.620;2023-04-29T10:46:22;96101.47;;;19.83;78.78
46724;BME280;32463;48.298;11.620;2023-04-29T10:48:55;96104.94;;;19.95;74.06
46724;BME280;32463;48.298;11.620;2023-04-29T10:51:28;96104.31;;;20.53;66.99
46724;BME280;32463;48.298;11.620;2023-04-29T10:54:01;96096.34;;;20.71;62.88
46724;BME280;32463;48.298;11.620;2023-04-29T10:57:08;96092.22;;;20.99;62.67
46724;BME280;32463;48.298;11.620;2023-04-29T11:01:54;96088.75;;;21.57;56.88
46724;BME280;32463;48.298;11.620;2023-04-29T11:04:21;96084.66;;;21.37;59.85
46724;BME280;32463;48.298;11.620;2023-04-29T11:06:53;96088.13;;;21.26;57.04
46724;BME280;32463;48.298;11.620;2023-04-29T11:12:03;96086.13;;;20.51;57.88
46724;BME280;32463;48.298;11.620;2023-04-29T11:14:40;96085.31;;;21.44;57.19
46724;BME280;32463;48.298;11.620;2023-04-29T11:17:17;96082.69;;;21.84;53.00
46724;BME280;32463;48.298;11.620;2023-04-29T11:19:49;96083.84;;;21.77;50.48
46724;BME280;32463;48.298;11.620;2023-04-29T11:24:55;96090.16;;;21.01;52.15
46724;BME280;32463;48.298;11.620;2023-04-29T11:27:26;96084.97;;;21.93;49.15
46724;BME280;32463;48.298;11.620;2023-04-29T11:29:56;96091.59;;;21.67;48.92
46724;BME280;32463;48.298;11.620;2023-04-29T11:32:29;96089.34;;;19.94;52.97
46724;BME280;32463;48.298;11.620;2023-04-29T11:35:16;96088.34;;;21.36;50.61
46724;BME280;32463;48.298;11.620;2023-04-29T11:37:44;96095.16;;;22.29;47.48
46724;BME280;32463;48.298;11.620;2023-04-29T11:40:12;96091.09;;;22.55;48.02
46724;BME280;32463;48.298;11.620;2023-04-29T11:42:44;96086.03;;;23.21;46.21
46724;BME280;32463;48.298;11.620;2023-04-29T11:45:11;96094.31;;;24.38;44.43
46724;BME280;32463;48.298;11.620;2023-04-29T11:47:46;96098.84;;;23.94;45.37
46724;BME280;32463;48.298;11.620;2023-04-29T11:50:15;96093.25;;;23.08;45.40
46724;BME280;32463;48.298;11.620;2023-04-29T11:52:45;96092.25;;;22.93;46.58
46724;BME280;32463;48.298;11.620;2023-04-29T11:55:12;96093.50;;;23.45;44.35
46724;BME280;32463;48.298;11.620;2023-04-29T11:57:39;96097.66;;;23.80;43.30
46724;BME280;32463;48.298;11.620;2023-04-29T12:00:10;96096.41;;;23.66;44.08
46724;BME280;32463;48.298;11.620;2023-04-29T12:02:37;96096.22;;;24.80;43.44
46724;BME280;32463;48.298;11.620;2023-04-29T12:05:05;96100.47;;;25.13;41.81
46724;BME280;32463;48.298;11.620;2023-04-29T12:07:38;96100.59;;;23.62;44.10
46724;BME280;32463;48.298;11.620;2023-04-29T12:10:08;96091.03;;;24.04;43.33
46724;BME280;32463;48.298;11.620;2023-04-29T12:12:36;96094.41;;;24.85;41.51
46724;BME280;32463;48.298;11.620;2023-04-29T12:15:06;96102.00;;;25.04;41.72
46724;BME280;32463;48.298;11.620;2023-04-29T12:17:34;96095.28;;;24.05;43.76
46724;BME280;32463;48.298;11.620;2023-04-29T12:20:01;96105.78;;;24.49;45.33
46724;BME280;32463;48.298;11.620;2023-04-29T12:22:31;96096.19;;;24.43;42.87
46724;BME280;32463;48.298;11.620;2023-04-29T12:24:58;96109.34;;;23.07;44.72
46724;BME280;32463;48.298;11.620;2023-04-29T12:27:25;96094.81;;;23.26;45.97
46724;BME280;32463;48.298;11.620;2023-04-29T12:29:52;96088.69;;;24.35;42.41
46724;BME280;32463;48.298;11.620;2023-04-29T12:32:22;96092.53;;;23.73;42.57
46724;BME280;32463;48.298;11.620;2023-04-29T12:34:50;96092.41;;;24.34;41.49
46724;BME280;32463;48.298;11.620;2023-04-29T12:37:17;96100.56;;;24.05;40.66
46724;BME280;32463;48.298;11.620;2023-04-29T12:39:44;96092.97;;;25.00;39.10
46724;BME280;32463;48.298;11.620;2023-04-29T12:42:14;96097.13;;;25.38;39.70
46724;BME280;32463;48.298;11.620;2023-04-29T12:44:45;96097.38;;;24.57;39.74
46724;BME280;32463;48.298;11.620;2023-04-29T12:47:12;96109.91;;;24.35;39.65
46724;BME280;32463;48.298;11.620;2023-04-29T12:49:44;96105.47;;;25.09;38.55
46724;BME280;32463;48.298;11.620;2023-04-29T12:52:10;96096.00;;;25.71;36.39
46724;BME280;32463;48.298;11.620;2023-04-29T12:54:38;96092.81;;;25.22;37.14
46724;BME280;32463;48.298;11.620;2023-04-29T12:57:06;96099.97;;;24.84;40.96
46724;BME280;32463;48.298;11.620;2023-04-29T12:59:33;96099.72;;;25.65;37.80
46724;BME280;32463;48.298;11.620;2023-04-29T13:02:00;96100.75;;;25.69;37.33
46724;BME280;32463;48.298;11.620;2023-04-29T13:04:26;96095.66;;;27.26;35.68
46724;BME280;32463;48.298;11.620;2023-04-29T13:06:53;96103.16;;;27.14;35.13